createdAt,value
2023-01-18T00:01:27.739Z,99.90
2023-01-18T00:04:01.521Z,99.90
2023-01-18T00:06:35.345Z,99.90
2023-01-18T00:09:08.695Z,99.90
2023-01-18T00:11:44.393Z,99.90
2023-01-18T00:14:18.186Z,99.90
2023-01-18T00:16:51.847Z,99.90
2023-01-18T00:19:25.581Z,99.90
2023-01-18T00:21:59.407Z,99.90
2023-01-18T00:24:33.210Z,99.90
2023-01-18T00:27:09.543Z,99.90
2023-01-18T00:29:42.804Z,99.90
2023-01-18T00:32:18.170Z,99.90
2023-01-18T00:34:51.135Z,99.90
2023-01-18T00:37:24.396Z,99.90
2023-01-18T00:39:58.147Z,99.90
2023-01-18T00:42:50.183Z,99.90
2023-01-18T00:45:23.956Z,99.90
2023-01-18T00:47:57.656Z,99.90
2023-01-18T00:50:40.396Z,99.90
2023-01-18T00:53:13.369Z,99.90
2023-01-18T00:55:46.598Z,99.90
2023-01-18T00:58:21.984Z,99.90
2023-01-18T01:00:57.923Z,99.90
2023-01-18T01:03:51.569Z,99.90
2023-01-18T01:06:46.120Z,99.90
2023-01-18T01:09:22.302Z,99.90
2023-01-18T01:12:09.844Z,99.90
2023-01-18T01:15:05.000Z,99.90
2023-01-18T01:17:56.046Z,99.90
2023-01-18T01:20:46.736Z,99.90
2023-01-18T01:23:38.168Z,99.90
2023-01-18T01:26:12.524Z,99.90
2023-01-18T01:28:47.461Z,99.90
2023-01-18T01:31:23.819Z,99.90
2023-01-18T01:33:56.683Z,99.90
2023-01-18T01:36:29.991Z,99.90
2023-01-18T01:39:03.022Z,99.90
2023-01-18T01:41:37.353Z,99.90
2023-01-18T01:44:45.894Z,99.90
2023-01-18T01:47:40.101Z,99.90
2023-01-18T01:50:24.080Z,99.90
2023-01-18T01:53:00.163Z,99.90
2023-01-18T01:55:35.910Z,99.90
2023-01-18T01:58:13.559Z,99.90
2023-01-18T02:00:47.275Z,99.90
2023-01-18T02:03:24.349Z,99.90
2023-01-18T02:06:03.671Z,99.90
2023-01-18T02:08:37.157Z,99.40
2023-01-18T02:11:10.580Z,98.90
2023-01-18T02:13:44.156Z,98.60
2023-01-18T02:16:24.134Z,98.10
2023-01-18T02:19:04.869Z,97.30
2023-01-18T02:21:43.357Z,96.90
2023-01-18T02:24:54.881Z,95.80
2023-01-18T02:27:30.422Z,96.30
2023-01-18T02:30:15.792Z,94.40
2023-01-18T02:32:59.332Z,93.00
2023-01-18T02:35:41.472Z,92.80
2023-01-18T02:38:18.960Z,92.20
2023-01-18T02:41:07.078Z,91.90
2023-01-18T02:43:57.293Z,92.50
2023-01-18T02:46:35.124Z,92.10
2023-01-18T02:49:11.978Z,92.40
2023-01-18T02:51:45.388Z,91.70
2023-01-18T02:54:25.646Z,91.90
2023-01-18T02:57:00.280Z,91.80
2023-01-18T02:59:39.404Z,91.90
2023-01-18T03:02:18.848Z,92.50
2023-01-18T03:04:57.623Z,92.70
2023-01-18T03:07:33.928Z,91.50
2023-01-18T03:10:10.701Z,90.70
2023-01-18T03:12:51.891Z,90.10
2023-01-18T03:15:33.717Z,90.20
2023-01-18T03:18:15.089Z,89.10
2023-01-18T03:20:55.118Z,90.30
2023-01-18T03:23:43.731Z,90.30
2023-01-18T03:26:20.842Z,89.00
2023-01-18T03:29:13.455Z,89.50
2023-01-18T03:32:06.359Z,88.20
2023-01-18T03:34:47.054Z,88.90
2023-01-18T03:37:25.749Z,89.80
2023-01-18T03:40:04.653Z,89.30
2023-01-18T03:42:44.660Z,90.20
2023-01-18T03:45:23.900Z,90.50
2023-01-18T03:47:57.025Z,90.80
2023-01-18T03:50:40.089Z,90.70
2023-01-18T03:53:16.997Z,91.30
2023-01-18T03:55:53.869Z,91.70
2023-01-18T03:58:30.810Z,91.90
2023-01-18T04:01:06.913Z,91.50
2023-01-18T04:03:42.632Z,92.20
2023-01-18T04:06:24.713Z,92.30
2023-01-18T04:09:00.519Z,93.00
2023-01-18T04:11:35.844Z,93.50
2023-01-18T04:14:14.363Z,93.70
2023-01-18T04:16:50.708Z,93.60
2023-01-18T04:19:26.759Z,92.20
2023-01-18T04:22:04.484Z,93.00
2023-01-18T04:24:40.849Z,92.90
2023-01-18T04:27:18.373Z,93.60
2023-01-18T04:29:54.268Z,93.30
2023-01-18T04:32:30.318Z,93.90
2023-01-18T04:35:06.485Z,93.60
2023-01-18T04:37:45.110Z,93.50
2023-01-18T04:40:21.706Z,93.70
2023-01-18T04:43:00.843Z,93.60
2023-01-18T04:45:41.685Z,93.10
2023-01-18T04:48:19.471Z,93.50
2023-01-18T04:50:55.739Z,93.60
2023-01-18T04:53:34.413Z,93.60
2023-01-18T04:56:10.927Z,93.90
2023-01-18T04:58:47.071Z,94.60
2023-01-18T05:01:22.786Z,94.60
2023-01-18T05:03:59.301Z,94.30
2023-01-18T05:06:32.626Z,94.20
2023-01-18T05:09:07.460Z,94.30
2023-01-18T05:11:40.336Z,94.00
2023-01-18T05:14:13.727Z,93.90
2023-01-18T05:16:47.428Z,93.80
2023-01-18T05:19:20.807Z,94.20
2023-01-18T05:21:54.209Z,94.30
2023-01-18T05:24:30.193Z,93.80
2023-01-18T05:27:03.212Z,93.90
2023-01-18T05:29:36.083Z,93.80
2023-01-18T05:32:09.396Z,93.60
2023-01-18T05:34:42.654Z,94.00
2023-01-18T05:37:16.457Z,93.70
2023-01-18T05:39:52.212Z,93.30
2023-01-18T05:42:25.541Z,93.40
2023-01-18T05:44:59.151Z,93.00
2023-01-18T05:47:32.431Z,92.70
2023-01-18T05:50:05.712Z,92.10
2023-01-18T05:52:38.906Z,91.90
2023-01-18T05:55:14.744Z,91.90
2023-01-18T05:57:48.263Z,91.90
2023-01-18T06:00:22.451Z,91.10
2023-01-18T06:02:57.478Z,91.20
2023-01-18T06:05:31.553Z,91.60
2023-01-18T06:08:04.590Z,91.90
2023-01-18T06:10:40.269Z,91.80
2023-01-18T06:13:14.715Z,92.40
2023-01-18T06:15:49.747Z,91.90
2023-01-18T06:18:22.797Z,92.00
2023-01-18T06:21:01.185Z,91.30
2023-01-18T06:23:36.422Z,91.10
2023-01-18T06:26:11.866Z,91.70
2023-01-18T06:28:45.583Z,91.30
2023-01-18T06:31:19.655Z,91.90
2023-01-18T06:33:53.226Z,91.50
2023-01-18T06:36:27.459Z,91.40
2023-01-18T06:39:01.001Z,91.30
2023-01-18T06:41:36.898Z,90.20
2023-01-18T06:44:10.185Z,90.30
2023-01-18T06:46:43.250Z,91.30
2023-01-18T06:49:16.494Z,91.60
2023-01-18T06:51:49.936Z,91.40
2023-01-18T06:54:23.729Z,91.30
2023-01-18T06:57:00.243Z,90.90
2023-01-18T06:59:34.084Z,90.60
2023-01-18T07:02:07.772Z,90.50
2023-01-18T07:04:45.332Z,90.70
2023-01-18T07:07:19.570Z,91.10
2023-01-18T07:09:53.173Z,90.10
2023-01-18T07:12:28.418Z,87.80
2023-01-18T07:15:21.113Z,86.70
2023-01-18T07:17:55.031Z,87.20
2023-01-18T07:20:28.891Z,87.80
2023-01-18T07:23:02.445Z,87.80
2023-01-18T07:25:36.136Z,88.10
2023-01-18T07:28:11.209Z,88.40
2023-01-18T07:30:44.389Z,89.60
2023-01-18T07:33:17.360Z,90.10
2023-01-18T07:35:53.161Z,90.50
2023-01-18T07:38:26.832Z,90.50
2023-01-18T07:41:05.468Z,90.70
2023-01-18T07:43:41.018Z,91.10
2023-01-18T07:46:17.111Z,90.60
2023-01-18T07:48:51.219Z,91.00
2023-01-18T07:51:25.324Z,91.00
2023-01-18T07:53:59.507Z,90.90
2023-01-18T07:56:32.985Z,90.50
2023-01-18T07:59:08.411Z,90.60
2023-01-18T08:01:41.976Z,90.50
2023-01-18T08:04:15.039Z,90.60
2023-01-18T08:06:47.971Z,90.60
2023-01-18T08:09:21.341Z,90.30
2023-01-18T08:11:54.688Z,90.30
2023-01-18T08:14:29.532Z,90.20
2023-01-18T08:17:02.965Z,90.60
2023-01-18T08:19:36.715Z,90.40
2023-01-18T08:22:10.986Z,90.50
2023-01-18T08:24:44.298Z,90.30
2023-01-18T08:27:18.240Z,90.60
2023-01-18T08:29:53.500Z,90.60
2023-01-18T08:32:26.748Z,91.40
2023-01-18T08:35:00.518Z,91.60
2023-01-18T08:37:35.397Z,91.70
2023-01-18T08:40:09.511Z,91.80
2023-01-18T08:42:43.867Z,92.10
2023-01-18T08:45:19.278Z,92.00
2023-01-18T08:47:52.317Z,91.70
2023-01-18T08:50:25.580Z,91.90
2023-01-18T08:53:01.372Z,92.50
2023-01-18T08:55:36.328Z,92.60
2023-01-18T08:58:09.321Z,92.50
2023-01-18T09:00:44.360Z,92.80
2023-01-18T09:03:17.344Z,92.90
2023-01-18T09:05:50.778Z,93.10
2023-01-18T09:08:24.581Z,93.00
2023-01-18T09:11:06.419Z,93.30
2023-01-18T09:13:54.506Z,92.90
2023-01-18T09:16:38.376Z,93.10
2023-01-18T09:19:11.617Z,93.00
2023-01-18T09:21:47.357Z,93.00
2023-01-18T09:24:20.861Z,93.00
2023-01-18T09:27:00.037Z,93.10
2023-01-18T09:29:34.420Z,93.10
2023-01-18T09:32:10.319Z,93.30
2023-01-18T09:34:47.124Z,93.70
2023-01-18T09:37:20.808Z,94.50
2023-01-18T09:39:54.701Z,95.00
2023-01-18T09:42:30.982Z,94.90
2023-01-18T09:45:05.585Z,95.70
2023-01-18T09:47:47.884Z,96.00
2023-01-18T09:50:24.511Z,96.30
2023-01-18T09:53:08.510Z,96.70
2023-01-18T09:55:52.315Z,97.10
2023-01-18T09:58:49.367Z,97.40
2023-01-18T10:01:25.147Z,98.00
2023-01-18T10:04:03.253Z,98.30
2023-01-18T10:06:51.734Z,98.80
2023-01-18T10:09:27.003Z,99.30
2023-01-18T10:12:03.654Z,99.60
2023-01-18T10:14:48.705Z,99.80
2023-01-18T10:17:24.382Z,99.90
2023-01-18T10:20:02.651Z,99.80
2023-01-18T10:22:41.777Z,99.90
2023-01-18T10:25:21.539Z,99.90
2023-01-18T10:28:09.370Z,99.90
2023-01-18T10:30:58.988Z,99.90
2023-01-18T10:33:36.035Z,99.90
2023-01-18T10:36:15.596Z,99.90
2023-01-18T10:38:49.463Z,99.90
2023-01-18T10:41:26.943Z,99.90
2023-01-18T10:44:00.560Z,99.90
2023-01-18T10:46:33.500Z,99.90
2023-01-18T10:49:06.856Z,99.90
2023-01-18T10:51:42.294Z,99.90
2023-01-18T10:54:30.144Z,99.90
2023-01-18T10:57:09.869Z,99.90
2023-01-18T10:59:46.731Z,99.90
2023-01-18T11:02:27.371Z,99.90
2023-01-18T11:05:05.535Z,99.90
2023-01-18T11:07:40.727Z,99.90
2023-01-18T11:10:28.999Z,99.90
2023-01-18T11:13:03.412Z,99.90
2023-01-18T11:15:36.497Z,99.90
2023-01-18T11:18:17.540Z,99.90
2023-01-18T11:20:53.097Z,99.90
2023-01-18T11:23:30.334Z,99.90
2023-01-18T11:26:07.235Z,99.90
2023-01-18T11:28:43.685Z,99.90
2023-01-18T11:31:20.451Z,99.90
2023-01-18T11:33:57.670Z,99.90
2023-01-18T11:36:42.060Z,99.90
2023-01-18T11:39:35.533Z,99.90
2023-01-18T11:42:33.463Z,99.90
2023-01-18T11:45:27.360Z,99.90
2023-01-18T11:48:07.183Z,99.90
2023-01-18T11:50:46.077Z,99.90
2023-01-18T11:53:34.097Z,99.90
2023-01-18T11:56:13.781Z,99.90
2023-01-18T11:58:47.344Z,99.90
2023-01-18T12:01:50.274Z,99.90
2023-01-18T12:04:36.672Z,99.90
2023-01-18T12:07:22.021Z,99.90
2023-01-18T12:09:59.125Z,99.90
2023-01-18T12:12:46.267Z,99.90
2023-01-18T12:15:41.755Z,99.90
2023-01-18T12:18:35.007Z,99.90
2023-01-18T12:21:15.675Z,99.90
2023-01-18T12:24:15.994Z,99.90
2023-01-18T12:26:59.460Z,99.90
2023-01-18T12:30:06.411Z,99.90
2023-01-18T12:33:06.000Z,99.90
2023-01-18T12:35:58.470Z,99.90
2023-01-18T12:38:36.019Z,99.90
2023-01-18T12:41:41.701Z,99.90
2023-01-18T12:44:30.063Z,99.90
2023-01-18T12:47:20.828Z,99.90
2023-01-18T12:50:05.574Z,99.90
2023-01-18T12:52:44.508Z,99.90
2023-01-18T12:55:22.831Z,99.90
2023-01-18T12:58:00.680Z,99.90
2023-01-18T13:00:39.834Z,99.90
2023-01-18T13:03:23.168Z,99.90
2023-01-18T13:06:02.111Z,99.90
2023-01-18T13:08:44.681Z,99.90
2023-01-18T13:11:22.167Z,99.90
2023-01-18T13:14:02.721Z,99.90
2023-01-18T13:16:49.648Z,99.90
2023-01-18T13:19:30.803Z,99.90
2023-01-18T13:22:15.540Z,99.90
2023-01-18T13:25:13.722Z,99.90
2023-01-18T13:28:02.779Z,99.90
2023-01-18T13:30:56.931Z,99.90
2023-01-18T13:33:33.372Z,99.90
2023-01-18T13:36:12.593Z,99.90
2023-01-18T13:38:56.732Z,99.90
2023-01-18T13:41:32.893Z,99.90
2023-01-18T13:44:11.044Z,99.90
2023-01-18T13:46:46.077Z,99.90
2023-01-18T13:49:38.848Z,99.90
2023-01-18T13:52:36.999Z,99.90
2023-01-18T13:55:32.953Z,99.90
2023-01-18T13:58:09.640Z,99.90
2023-01-18T14:00:51.985Z,99.90
2023-01-18T14:03:30.736Z,99.90
2023-01-18T14:06:12.871Z,99.90
2023-01-18T14:09:00.088Z,99.90
2023-01-18T14:11:40.116Z,99.90
2023-01-18T14:14:31.884Z,99.90
2023-01-18T14:17:13.685Z,99.90
2023-01-18T14:20:19.858Z,99.90
2023-01-18T14:23:10.377Z,99.90
2023-01-18T14:25:58.908Z,99.90
2023-01-18T14:28:38.628Z,99.90
2023-01-18T14:31:19.454Z,99.90
2023-01-18T14:33:53.980Z,99.90
2023-01-18T14:36:30.127Z,99.90
2023-01-18T14:39:19.157Z,99.90
2023-01-18T14:41:59.571Z,99.90
2023-01-18T14:44:57.446Z,99.90
2023-01-18T14:47:37.436Z,99.90
2023-01-18T14:50:24.645Z,99.90
2023-01-18T14:53:02.635Z,99.90
2023-01-18T14:55:39.076Z,99.90
2023-01-18T14:58:24.833Z,99.90
2023-01-18T15:01:01.591Z,99.90
2023-01-18T15:03:38.784Z,99.90
2023-01-18T15:06:21.416Z,99.90
2023-01-18T15:08:56.398Z,99.90
2023-01-18T15:11:35.060Z,99.90
2023-01-18T15:14:17.267Z,99.90
2023-01-18T15:16:54.762Z,99.90
2023-01-18T15:19:36.909Z,99.90
2023-01-18T15:22:13.488Z,99.90
2023-01-18T15:24:52.468Z,99.90
2023-01-18T15:27:27.417Z,99.90
2023-01-18T15:30:06.314Z,99.90
2023-01-18T15:32:42.281Z,99.90
2023-01-18T15:35:20.548Z,99.90
2023-01-18T15:37:55.768Z,99.90
2023-01-18T15:40:35.934Z,99.90
2023-01-18T15:43:13.260Z,99.90
2023-01-18T15:45:52.495Z,99.90
2023-01-18T15:48:28.387Z,99.90
2023-01-18T15:51:10.434Z,99.90
2023-01-18T15:53:53.877Z,99.90
2023-01-18T15:56:31.439Z,99.90
2023-01-18T15:59:11.089Z,99.90
2023-01-18T16:01:56.095Z,99.90
2023-01-18T16:04:32.562Z,99.90
2023-01-18T16:07:38.893Z,99.90
2023-01-18T16:10:32.017Z,99.90
2023-01-18T16:13:27.703Z,99.90
2023-01-18T16:16:25.829Z,99.90
2023-01-18T16:19:16.824Z,99.90
2023-01-18T16:21:53.722Z,99.90
2023-01-18T16:24:36.775Z,99.90
2023-01-18T16:27:16.987Z,99.90
2023-01-18T16:29:56.834Z,99.90
2023-01-18T16:32:36.659Z,99.90
2023-01-18T16:35:18.695Z,99.90
2023-01-18T16:37:53.602Z,99.90
2023-01-18T16:40:27.660Z,99.90
2023-01-18T16:43:03.631Z,99.90
2023-01-18T16:45:40.409Z,99.90
2023-01-18T16:48:20.048Z,99.90
2023-01-18T16:50:58.021Z,99.90
2023-01-18T16:53:31.174Z,99.90
2023-01-18T16:56:04.049Z,99.90
2023-01-18T16:58:37.233Z,99.90
2023-01-18T17:01:15.374Z,99.90
2023-01-18T17:03:50.854Z,99.90
2023-01-18T17:06:28.060Z,99.90
2023-01-18T17:09:01.492Z,99.90
2023-01-18T17:11:35.346Z,99.90
2023-01-18T17:14:08.380Z,99.90
2023-01-18T17:16:42.823Z,99.90
2023-01-18T17:19:20.399Z,99.90
2023-01-18T17:21:55.827Z,99.90
2023-01-18T17:24:29.296Z,99.90
2023-01-18T17:27:03.032Z,99.90
2023-01-18T17:29:41.234Z,99.90
2023-01-18T17:32:14.940Z,99.90
2023-01-18T17:34:47.861Z,99.90
2023-01-18T17:37:22.548Z,99.90
2023-01-18T17:40:12.128Z,99.90
2023-01-18T17:42:48.862Z,99.90
2023-01-18T17:45:23.112Z,99.90
2023-01-18T17:47:57.140Z,99.90
2023-01-18T17:50:30.498Z,99.90
2023-01-18T17:53:05.994Z,99.90
2023-01-18T17:55:39.184Z,99.90
2023-01-18T17:58:12.456Z,99.90
2023-01-18T18:00:46.084Z,99.90
2023-01-18T18:03:19.396Z,99.90
2023-01-18T18:08:41.332Z,99.90
2023-01-18T18:11:15.667Z,99.90
2023-01-18T18:13:48.545Z,99.90
2023-01-18T18:16:27.464Z,99.90
2023-01-18T18:19:01.835Z,99.90
2023-01-18T18:21:35.351Z,99.90
2023-01-18T18:24:11.382Z,99.90
2023-01-18T18:26:44.246Z,99.90
2023-01-18T18:29:17.519Z,99.90
2023-01-18T18:31:51.060Z,99.90
2023-01-18T18:34:25.029Z,99.90
2023-01-18T18:36:58.794Z,99.90
2023-01-18T18:39:35.230Z,99.90
2023-01-18T18:42:09.115Z,99.90
2023-01-18T18:44:43.143Z,99.90
2023-01-18T18:47:16.213Z,99.90
2023-01-18T18:49:49.738Z,99.90
2023-01-18T18:52:22.943Z,99.90
2023-01-18T18:54:58.271Z,99.90
2023-01-18T18:57:31.467Z,99.90
2023-01-18T19:00:05.038Z,99.90
2023-01-18T19:02:38.410Z,99.90
2023-01-18T19:05:11.919Z,99.90
2023-01-18T19:07:45.806Z,99.90
2023-01-18T19:10:21.244Z,99.90
2023-01-18T19:12:54.978Z,99.90
2023-01-18T19:15:28.457Z,99.90
2023-01-18T19:18:01.698Z,99.90
2023-01-18T19:20:34.916Z,99.90
2023-01-18T19:23:08.176Z,99.90
2023-01-18T19:25:45.025Z,99.90
2023-01-18T19:28:19.593Z,99.90
2023-01-18T19:30:53.079Z,99.90
2023-01-18T19:33:26.796Z,99.90
2023-01-18T19:36:00.711Z,99.90
2023-01-18T19:38:35.500Z,99.90
2023-01-18T19:41:14.077Z,99.90
2023-01-18T19:43:47.196Z,99.90
2023-01-18T19:46:21.410Z,99.90
2023-01-18T19:48:59.776Z,99.90
2023-01-18T19:51:33.936Z,99.90
2023-01-18T19:54:08.777Z,99.90
2023-01-18T19:56:44.099Z,99.90
2023-01-18T19:59:17.976Z,99.90
2023-01-18T20:01:53.147Z,99.90
2023-01-18T20:04:26.944Z,99.90
2023-01-18T20:07:00.766Z,99.90
2023-01-18T20:09:42.680Z,99.90
2023-01-18T20:12:18.217Z,99.90
2023-01-18T20:14:51.790Z,99.90
2023-01-18T20:17:25.067Z,99.90
2023-01-18T20:19:59.063Z,99.90
2023-01-18T20:22:35.430Z,99.90
2023-01-18T20:25:09.456Z,99.90
2023-01-18T20:27:45.335Z,99.90
2023-01-18T20:30:18.794Z,99.90
2023-01-18T20:32:51.811Z,99.90
2023-01-18T20:35:24.805Z,99.90
2023-01-18T20:37:58.181Z,99.90
2023-01-18T20:40:31.670Z,99.90
2023-01-18T20:43:08.037Z,99.90
2023-01-18T20:45:41.936Z,99.90
2023-01-18T20:48:16.479Z,99.90
2023-01-18T20:50:50.058Z,99.90
2023-01-18T20:53:23.840Z,99.90
2023-01-18T20:55:57.408Z,99.90
2023-01-18T20:58:34.079Z,99.90
2023-01-18T21:01:17.562Z,99.90
2023-01-18T21:03:56.618Z,99.90
2023-01-18T21:06:33.270Z,99.90
2023-01-18T21:09:07.639Z,99.90
2023-01-18T21:11:41.013Z,99.90
2023-01-18T21:14:17.360Z,99.90
2023-01-18T21:16:50.883Z,99.90
2023-01-18T21:19:25.250Z,99.90
2023-01-18T21:21:58.713Z,99.90
2023-01-18T21:24:32.390Z,99.90
2023-01-18T21:27:06.078Z,99.90
2023-01-18T21:29:42.183Z,99.90
2023-01-18T21:32:15.858Z,99.90
2023-01-18T21:34:49.085Z,99.90
2023-01-18T21:37:22.435Z,99.90
2023-01-18T21:39:55.419Z,99.90
2023-01-18T21:42:41.872Z,99.90
2023-01-18T21:45:34.391Z,99.90
2023-01-18T21:48:11.631Z,99.90
2023-01-18T21:51:01.949Z,99.90
2023-01-18T21:53:52.240Z,99.90
2023-01-18T21:56:26.356Z,99.90
2023-01-18T21:59:02.264Z,99.90
2023-01-18T22:01:40.975Z,99.90
2023-01-18T22:04:31.878Z,99.90
2023-01-18T22:07:06.972Z,99.90
2023-01-18T22:09:40.524Z,99.90
2023-01-18T22:12:14.334Z,99.90
2023-01-18T22:14:47.199Z,99.90
2023-01-18T22:17:22.259Z,99.90
2023-01-18T22:19:55.533Z,99.90
2023-01-18T22:22:28.526Z,99.90
2023-01-18T22:25:04.074Z,99.90
2023-01-18T22:27:37.873Z,99.90
2023-01-18T22:30:12.614Z,99.90
2023-01-18T22:32:49.356Z,99.90
2023-01-18T22:35:23.298Z,99.90
2023-01-18T22:37:56.316Z,99.90
2023-01-18T22:40:29.365Z,99.90
2023-01-18T22:43:02.804Z,99.90
2023-01-18T22:45:36.581Z,99.90
2023-01-18T22:48:12.049Z,99.90
2023-01-18T22:50:45.598Z,99.90
2023-01-18T22:53:19.354Z,99.90
2023-01-18T22:55:53.444Z,99.90
2023-01-18T22:58:26.962Z,99.90
2023-01-18T23:01:01.737Z,99.90
2023-01-18T23:03:37.326Z,99.90
2023-01-18T23:06:12.428Z,99.90
2023-01-18T23:08:47.157Z,99.90
2023-01-18T23:11:25.271Z,99.90
2023-01-18T23:14:31.714Z,99.90
2023-01-18T23:17:17.511Z,99.90
2023-01-18T23:19:55.281Z,99.90
2023-01-18T23:22:29.692Z,99.90
2023-01-18T23:25:03.328Z,99.90
2023-01-18T23:27:38.651Z,99.90
2023-01-18T23:30:14.360Z,99.90
2023-01-18T23:32:48.201Z,99.90
2023-01-18T23:35:24.688Z,99.90
2023-01-18T23:37:58.350Z,99.90
2023-01-18T23:40:48.435Z,99.90
2023-01-18T23:43:37.954Z,99.90
2023-01-18T23:46:27.597Z,99.90
2023-01-18T23:49:17.070Z,99.90
2023-01-18T23:52:08.937Z,99.90
2023-01-18T23:54:43.141Z,99.90
2023-01-18T23:57:16.517Z,99.90
2023-01-18T23:59:49.751Z,99.90
